• Join FlightAware (Why Join?)
  • Login
  • US Flag 
10:26AM EDT


 

Airport Tracker/Info


-or-


 

Live Flight TrackerFlight Track Log ✈ ASQ5685 ✈ 19-Jul-2013 ✈ KATL - KIAD

Flight Track Log - Related Links

Times and Time Zones

All times are in EDT time to prevent confusion due to time zone crossing. See the ASQ5685 flight status page for this flight to view local times or setup timezone preferences in your user account.

Time Position Orientation Groundspeed Altitude Reporting Facility
EDT Latitude Longitude Course Direction KTS MPH feet Rate Location/Type
09:34AM 33.6333 -84.4500 48° Northeast 165 190 1,700  Level Atlanta TRACON
09:35AM 33.6167 -84.5167 253° West 232 267 3,000 1,440 Climbing Atlanta TRACON
09:35AM 33.5992 -84.5575 243° Southwest 265 305 3,900 2,160 Climbing Atlanta Center
09:36AM 33.5342 -84.5872 201° Southwest 249 287 6,300 2,400 Climbing Atlanta Center
09:37AM 33.7564 -83.9672 54° Northeast  Level FlightAware Approximate
09:37AM 33.4592 -84.5517 158° South 287 330 8,800  Level Atlanta Center
09:38AM 33.8146 -83.8703 54° Northeast  Level FlightAware Approximate
09:38AM 33.4553 -84.4619 93° East 292 336 10,300  Level Atlanta Center
09:39AM 33.8736 -83.7740 48° Northeast  Level FlightAware Approximate
09:39AM 33.4558 -84.3500 90° East 323 372 11,300  Level Atlanta Center
09:40AM 33.4997 -84.2481 63° Northeast 338 389 13,100 1,620 Climbing Atlanta Center
09:41AM 33.5897 -84.1933 27° Northeast 324 373 14,600 1,440 Climbing Atlanta Center
09:42AM 33.6794 -84.1311 30° Northeast 354 407 16,000 1,320 Climbing Atlanta Center
09:43AM 33.7547 -84.0489 42° Northeast 365 420 17,300 1,140 Climbing Atlanta Center
09:44AM 33.8108 -83.9439 57° Northeast 368 423 18,300 1,140 Climbing Atlanta Center
09:45AM 33.8714 -83.8286 58° Northeast 368 423 19,600 1,320 Climbing Atlanta Center
09:46AM 33.9253 -83.7233 58° Northeast 368 423 21,000 1,260 Climbing Atlanta Center
09:47AM 33.9856 -83.6278 53° Northeast 362 417 22,200 1,080 Climbing Atlanta Center
09:48AM 34.0478 -83.5247 54° Northeast 367 422 23,200 900 Climbing Atlanta Center
09:49AM 34.1100 -83.4267 53° Northeast 367 422 24,000 840 Climbing Atlanta Center
09:50AM 34.1761 -83.3231 52° Northeast 374 430 24,900 840 Climbing Atlanta Center
09:51AM 34.2381 -83.2222 53° Northeast 374 430 25,700 780 Climbing Atlanta Center
09:52AM 34.3000 -83.1183 54° Northeast 380 437 26,500 600 Climbing Atlanta Center
09:53AM 34.3661 -83.0144 52° Northeast 380 437 27,000 240 Climbing Atlanta Center
09:54AM 34.4339 -82.9081 52° Northeast 391 450 27,000  Level Atlanta Center
09:55AM 34.4997 -82.7986 54° Northeast 396 456 27,000  Level Atlanta Center
09:56AM 34.5572 -82.7044 53° Northeast 396 456 27,000  Level Atlanta Center
09:57AM 34.6206 -82.5975 54° Northeast 391 450 27,000  Level Atlanta Center
09:58AM 34.6964 -82.4850 51° Northeast 385 443 27,000  Level Atlanta Center
09:59AM 34.7597 -82.3803 54° Northeast 385 443 27,000  Level Atlanta Center
10:00AM 34.8250 -82.2700 54° Northeast 390 449 27,000  Level Atlanta Center
10:01AM 34.8903 -82.1650 53° Northeast 390 449 27,000  Level Atlanta Center
10:02AM 34.9533 -82.0622 53° Northeast 390 449 27,000  Level Atlanta Center
10:03AM 35.0183 -81.9567 53° Northeast 390 449 27,000  Level Atlanta Center
10:04AM 35.0731 -81.8561 56° Northeast 390 449 27,000  Level Atlanta Center
10:05AM 35.1314 -81.7456 57° Northeast 390 449 27,000  Level Atlanta Center
10:06AM 35.1897 -81.6347 57° Northeast 384 442 27,000  Level Atlanta Center
10:07AM 35.2481 -81.5211 58° Northeast 392 451 27,000  Level Atlanta Center
10:08AM 35.3083 -81.4097 56° Northeast 392 451 27,000  Level Atlanta Center
10:09AM 35.3664 -81.2958 58° Northeast 392 451 27,000  Level Atlanta Center
10:10AM 35.4242 -81.1817 58° Northeast 392 451 27,000  Level Atlanta Center
10:11AM 35.4819 -81.0675 58° Northeast 392 451 27,000  Level Atlanta Center
10:12AM 35.5419 -80.9556 57° Northeast 397 457 27,000  Level Atlanta Center
10:13AM 35.6014 -80.8411 57° Northeast 397 457 27,000  Level Atlanta Center
10:14AM 35.6631 -80.7261 57° Northeast 397 457 27,000  Level Atlanta Center
10:16AM 35.7597 -80.5372 58° Northeast 393 452 27,000  Level Washington Center
10:17AM 35.8186 -80.4231 58° Northeast 399 459 27,000  Level Washington Center
10:18AM 35.8819 -80.2964 58° Northeast 399 459 27,000  Level Washington Center
10:19AM 35.9408 -80.1792 58° Northeast 399 459 27,000  Level Washington Center
10:20AM 36.0014 -80.0697 56° Northeast 391 450 27,000  Level Washington Center
10:21AM 36.0619 -79.9550 57° Northeast 386 444 27,000  Level Washington Center
10:22AM 36.1244 -79.8428 55° Northeast 386 444 27,000  Level Washington Center
10:23AM 36.1867 -79.7303 56° Northeast 391 450 27,000  Level Washington Center
10:24AM 36.2511 -79.6153 55° Northeast 396 456 27,000  Level Washington Center
10:25AM 36.3133 -79.5025 56° Northeast 396 456 27,000  Level Washington Center
10:26AM 36.3775 -79.3919 54° Northeast 396 456 27,000  Level Washington Center
10:27AM 36.4328 -79.2889 56° Northeast 396 456 27,000  Level Washington Center
10:28AM 36.5033 -79.1631 55° Northeast 396 456 27,000  Level Washington Center
10:29AM 36.5694 -79.0497 54° Northeast 396 456 27,000 -300 Level Washington Center
10:30AM 36.6375 -78.9283 55° Northeast 401 461 26,400 -840 Descending Washington Center
10:31AM 36.6992 -78.8119 57° Northeast 427 491 25,400 -720 Descending Washington Center
10:32AM 36.7669 -78.6903 55° Northeast 433 498 25,000 -240 Descending Washington Center
10:33AM 36.8306 -78.5708 56° Northeast 422 486 25,000 -360 Level Washington Center
10:34AM 36.9208 -78.4550 46° Northeast 422 486 24,300 -1,020 Descending Washington Center
10:35AM 37.0214 -78.3494 40° Northeast 434 499 23,000 -1,200 Descending Washington Center
10:36AM 37.1217 -78.2486 39° Northeast 450 518 22,000 -540 Descending Washington Center
10:37AM 37.2008 -78.1681 39° Northeast 458 527 22,000  Level Washington Center
10:38AM 37.3072 -78.0697 36° Northeast 453 521 22,000  Level Washington Center
10:39AM 37.4128 -78.0000 28° Northeast 436 502 22,000 -180 Level Washington Center
10:40AM 37.5167 -77.9219 31° Northeast 431 496 21,700 -720 Descending Washington Center
10:41AM 37.6244 -77.8467 29° Northeast 431 496 20,600 -1,500 Descending Washington Center
10:42AM 37.7322 -77.7686 30° Northeast 436 502 18,800 -2,040 Descending Washington Center
10:43AM 37.8358 -77.6953 29° Northeast 436 502 16,500 -2,340 Descending Washington Center
10:44AM 37.9392 -77.6219 29° Northeast 425 489 14,200 -1,800 Descending Washington Center
10:45AM 38.0364 -77.5533 29° Northeast 414 476 13,000 -660 Descending Washington Center
10:46AM 38.1333 -77.4819 30° Northeast 403 464 13,000 -300 Level Washington Center
10:47AM 38.2175 -77.4258 28° Northeast 380 437 12,500 -1,260 Descending Washington Center
10:48AM 38.2975 -77.3803 24° Northeast 336 387 10,500 -1,980 Descending Washington Center
10:49AM 38.3811 -77.3742 North 297 342 8,600 -1,920 Descending Washington Center
10:50AM 38.4603 -77.3708 North 297 342 6,700 -1,800 Descending Washington Center
10:51AM 38.5375 -77.3672 North 292 336 5,000 -1,080 Descending Washington Center
10:52AM 38.6147 -77.3667 360° North 287 330 4,600 -540 Descending Washington Center
10:53AM 38.6897 -77.3631 North 281 323 4,000 -300 Descending Washington Center
10:54AM 38.7692 -77.3597 North 275 316 4,000  Level Washington Center
10:55AM 38.8464 -77.3561 North 275 316 4,000 -300 Level Washington Center
10:56AM 38.9256 -77.3528 North 275 316 3,500 -540 Descending Washington Center